Time;durP1;ratioP1;P1;durP2;ratioP2;P2;SDS_P1;SDS_P2;PMS_P1;PMS_P2;Temp;Humidity;BMP_temperature;BMP_pressure;BME280_temperature;BME280_humidity;BME280_pressure;Samples;Min_cycle;Max_cycle;Signal;HPM_P1;HPM_P2
2024/04/18 00:01:29;;;;;;;1.47;1.10;;;24.00;53.10;;;;;;5413062;26;20263;-72
2024/04/18 00:03:55;;;;;;;1.60;1.30;;;24.10;53.20;;;;;;5415175;26;20232;-71
2024/04/18 00:06:20;;;;;;;1.67;1.30;;;24.10;53.20;;;;;;5412995;26;20250;-72
2024/04/18 00:08:46;;;;;;;1.30;0.90;;;24.00;53.10;;;;;;5413243;26;20248;-72
2024/04/18 00:11:11;;;;;;;1.20;1.00;;;24.00;53.10;;;;;;5412861;26;21016;-71
2024/04/18 00:13:37;;;;;;;1.83;1.10;;;24.00;53.50;;;;;;5434338;26;20639;-72
2024/04/18 00:16:03;;;;;;;3.00;1.83;;;24.00;53.10;;;;;;5448365;26;20274;-72
2024/04/18 00:18:28;;;;;;;1.67;1.23;;;24.00;53.10;;;;;;5448681;26;21035;-72
2024/04/18 00:20:54;;;;;;;1.77;1.10;;;24.00;53.10;;;;;;5448757;26;20733;-72
2024/04/18 00:23:20;;;;;;;1.83;1.20;;;24.00;53.10;;;;;;5459919;26;20236;-73
2024/04/18 00:25:45;;;;;;;1.43;1.20;;;24.00;53.10;;;;;;5412696;26;20672;-72
2024/04/18 00:28:11;;;;;;;2.40;1.20;;;24.00;53.20;;;;;;5381183;26;20248;-72
2024/04/18 00:30:36;;;;;;;1.37;1.00;;;24.00;53.20;;;;;;5412492;26;20278;-72
2024/04/18 00:33:02;;;;;;;2.63;1.17;;;24.00;53.10;;;;;;5434936;26;20761;-72
2024/04/18 00:35:28;;;;;;;2.30;1.30;;;24.00;53.10;;;;;;5448306;26;20220;-74
2024/04/18 00:37:53;;;;;;;1.60;1.10;;;24.00;53.20;;;;;;5448559;26;20266;-72
2024/04/18 00:40:19;;;;;;;1.47;1.37;;;24.00;53.10;;;;;;5480646;26;20321;-72
2024/04/18 00:42:45;;;;;;;1.60;1.20;;;24.00;53.10;;;;;;5434830;26;20805;-72
2024/04/18 00:45:10;;;;;;;1.80;1.30;;;24.00;53.10;;;;;;5415997;26;20266;-71
2024/04/18 00:47:36;;;;;;;1.57;1.10;;;23.90;53.00;;;;;;5384609;26;20233;-71
2024/04/18 00:50:04;;;;;;;1.40;1.20;;;23.90;53.00;;;;;;5416173;26;20244;-72
2024/04/18 00:52:31;;;;;;;1.20;1.00;;;23.90;53.10;;;;;;5428367;26;20594;-71
2024/04/18 00:54:56;;;;;;;1.60;1.30;;;23.90;53.10;;;;;;5451297;26;20472;-72
2024/04/18 00:57:23;;;;;;;1.67;1.10;;;23.90;53.10;;;;;;5451901;26;20444;-72
2024/04/18 00:59:50;;;;;;;1.40;1.10;;;23.90;53.10;;;;;;5451792;26;20223;-72
2024/04/18 01:02:16;;;;;;;1.53;1.07;;;23.90;53.10;;;;;;5442269;26;20454;-72
2024/04/18 01:04:42;;;;;;;1.37;1.27;;;23.90;53.10;;;;;;5415943;26;20493;-72
2024/04/18 01:07:07;;;;;;;1.43;1.13;;;23.90;53.10;;;;;;5415831;26;20232;-73
2024/04/18 01:09:33;;;;;;;1.30;1.07;;;23.90;53.10;;;;;;5415753;26;20283;-72
2024/04/18 01:11:59;;;;;;;1.70;1.10;;;23.90;53.10;;;;;;5419923;26;20243;-70
2024/04/18 01:14:24;;;;;;;1.27;1.00;;;23.90;53.10;;;;;;5451706;26;20282;-72
2024/04/18 01:16:50;;;;;;;1.30;1.00;;;23.90;53.10;;;;;;5451609;26;20219;-72
2024/04/18 01:19:19;;;;;;;1.83;1.03;;;23.90;53.10;;;;;;5437470;26;20232;-72
2024/04/18 01:21:46;;;;;;;1.40;1.10;;;23.90;53.10;;;;;;5415555;26;20228;-71
2024/04/18 01:24:12;;;;;;;1.43;1.03;;;23.90;53.10;;;;;;5415613;26;20504;-72
2024/04/18 01:26:38;;;;;;;1.10;0.97;;;23.90;53.10;;;;;;5384358;26;21360;-72
2024/04/18 01:29:03;;;;;;;1.30;1.10;;;23.90;53.10;;;;;;5425832;26;20453;-72
2024/04/18 01:31:29;;;;;;;1.70;1.30;;;23.90;53.10;;;;;;5451315;26;20825;-71
2024/04/18 01:33:57;;;;;;;2.50;1.07;;;23.90;53.10;;;;;;5451453;26;20220;-72
2024/04/18 01:36:23;;;;;;;1.50;1.30;;;23.90;53.10;;;;;;5451484;26;20815;-72
2024/04/18 01:38:49;;;;;;;1.57;1.00;;;23.90;53.10;;;;;;5444528;26;20462;-72
2024/04/18 01:41:16;;;;;;;1.70;1.60;;;23.90;53.10;;;;;;5415462;26;20506;-72
2024/04/18 01:43:41;;;;;;;1.10;0.80;;;23.90;53.10;;;;;;5415691;26;20236;-71
2024/04/18 01:46:07;;;;;;;1.30;1.07;;;23.90;53.10;;;;;;5415356;26;20569;-72
2024/04/18 01:48:33;;;;;;;1.20;1.00;;;23.90;53.10;;;;;;5416955;26;20314;-71
2024/04/18 01:50:58;;;;;;;1.43;1.00;;;23.90;53.10;;;;;;5449886;26;21019;-73
2024/04/18 01:53:24;;;;;;;1.30;1.00;;;23.80;53.10;;;;;;5479619;26;20271;-72
2024/04/18 01:55:49;;;;;;;1.57;1.27;;;23.80;53.00;;;;;;5451003;26;20274;-71
2024/04/18 01:58:15;;;;;;;1.53;1.10;;;23.80;53.00;;;;;;5450990;26;20243;-72
2024/04/18 02:00:44;;;;;;;1.37;1.00;;;23.80;53.00;;;;;;5417252;26;20232;-71
2024/04/18 02:03:09;;;;;;;1.50;1.07;;;23.80;53.00;;;;;;5414913;26;20333;-71
2024/04/18 02:05:35;;;;;;;1.40;0.70;;;23.80;53.00;;;;;;5414905;26;20458;-70
2024/04/18 02:08:01;;;;;;;1.70;0.90;;;23.80;53.00;;;;;;5415050;26;20233;-71
2024/04/18 02:10:27;;;;;;;1.40;1.10;;;23.80;53.00;;;;;;5444258;26;20283;-72
2024/04/18 02:12:56;;;;;;;1.50;1.00;;;23.80;53.00;;;;;;5450899;26;20481;-71
2024/04/18 02:15:25;;;;;;;1.47;1.03;;;23.80;53.00;;;;;;5450799;26;20223;-71
2024/04/18 02:17:51;;;;;;;1.50;1.20;;;23.80;53.00;;;;;;5450799;26;20468;-70
2024/04/18 02:20:19;;;;;;;1.33;1.13;;;23.80;53.00;;;;;;5423819;26;20470;-72
2024/04/18 02:22:44;;;;;;;1.63;0.97;;;23.80;53.10;;;;;;5414811;26;20458;-71
2024/04/18 02:25:10;;;;;;;1.67;1.00;;;23.80;53.10;;;;;;5442749;26;20539;-71
2024/04/18 02:27:44;;;;;;;1.50;1.10;;;23.80;53.10;;;;;;5414924;26;20228;-71
2024/04/18 02:30:10;;;;;;;1.43;1.10;;;23.80;53.10;;;;;;5416788;26;20583;-72
2024/04/18 02:32:37;;;;;;;1.80;1.10;;;23.80;53.10;;;;;;5414511;26;21379;-73
2024/04/18 02:35:03;;;;;;;1.43;1.10;;;23.80;53.10;;;;;;5414449;26;20580;-72
2024/04/18 02:37:29;;;;;;;1.20;0.90;;;23.80;53.10;;;;;;5383009;26;20485;-71
2024/04/18 02:39:55;;;;;;;2.00;1.30;;;23.70;53.00;;;;;;5432444;26;20517;-72
2024/04/18 02:42:20;;;;;;;1.90;1.40;;;23.70;53.00;;;;;;5450400;26;20223;-72
2024/04/18 02:44:46;;;;;;;1.47;1.10;;;23.70;53.60;;;;;;5450224;26;20219;-72
2024/04/18 02:47:12;;;;;;;1.50;1.00;;;23.70;53.00;;;;;;5447911;26;20223;-71
2024/04/18 02:49:38;;;;;;;2.27;1.10;;;23.70;53.10;;;;;;5423544;26;20664;-72
2024/04/18 02:52:04;;;;;;;1.03;0.90;;;23.70;53.10;;;;;;5450251;26;20567;-72
2024/04/18 02:54:30;;;;;;;1.30;1.00;;;23.70;53.10;;;;;;5450109;26;20266;-71
2024/04/18 02:56:56;;;;;;;1.53;1.10;;;23.70;53.10;;;;;;5418345;26;20465;-71
2024/04/18 02:59:21;;;;;;;2.07;0.93;;;23.70;53.10;;;;;;5446290;26;20468;-71
2024/04/18 03:01:48;;;;;;;1.30;1.13;;;23.70;53.10;;;;;;5412750;26;20450;-72
2024/04/18 03:04:13;;;;;;;2.07;1.13;;;23.70;53.10;;;;;;5414213;26;20227;-72
2024/04/18 03:06:39;;;;;;;1.37;1.10;;;23.70;53.10;;;;;;5442209;26;20462;-71
2024/04/18 03:09:05;;;;;;;1.40;1.13;;;23.70;53.10;;;;;;5413919;26;20340;-72
2024/04/18 03:11:30;;;;;;;1.87;1.27;;;23.70;53.10;;;;;;5448393;26;20227;-71
2024/04/18 03:13:56;;;;;;;1.33;1.00;;;23.70;53.10;;;;;;5449852;26;20287;-71
2024/04/18 03:16:21;;;;;;;1.10;0.90;;;23.70;53.20;;;;;;5449841;26;20219;-72
2024/04/18 03:18:47;;;;;;;1.93;1.40;;;23.70;53.10;;;;;;5449750;26;20235;-72
2024/04/18 03:21:12;;;;;;;1.40;1.00;;;23.70;53.10;;;;;;5419335;26;20298;-72
2024/04/18 03:23:38;;;;;;;1.10;0.90;;;23.70;53.20;;;;;;5413849;26;20707;-72
2024/04/18 03:26:04;;;;;;;1.57;0.90;;;23.70;53.10;;;;;;5414205;26;20270;-73
2024/04/18 03:28:30;;;;;;;1.67;1.23;;;23.70;53.10;;;;;;5413824;26;20643;-72
2024/04/18 03:30:55;;;;;;;1.40;1.00;;;23.70;53.10;;;;;;5438682;26;20960;-72
2024/04/18 03:33:21;;;;;;;1.20;0.90;;;23.60;53.10;;;;;;5422218;26;20339;-72
2024/04/18 03:35:46;;;;;;;1.83;0.90;;;23.60;53.10;;;;;;5413899;26;20580;-72
2024/04/18 03:38:12;;;;;;;2.40;0.97;;;23.70;53.20;;;;;;5413645;26;20589;-72
2024/04/18 03:40:38;;;;;;;1.40;1.00;;;23.60;53.10;;;;;;5413656;26;20259;-73
2024/04/18 03:43:04;;;;;;;1.10;0.90;;;23.70;53.10;;;;;;5434432;26;20231;-72
2024/04/18 03:45:30;;;;;;;1.50;1.07;;;23.60;53.10;;;;;;5449386;26;20219;-72
2024/04/18 03:47:56;;;;;;;1.03;0.80;;;23.70;53.10;;;;;;5449365;26;20517;-71
2024/04/18 03:50:22;;;;;;;1.50;1.00;;;23.70;53.10;;;;;;5449210;26;20461;-72
2024/04/18 03:52:47;;;;;;;1.20;0.97;;;23.70;53.10;;;;;;5448164;26;20231;-72
2024/04/18 03:55:13;;;;;;;1.10;0.90;;;23.70;53.10;;;;;;5449228;26;20327;-73
2024/04/18 03:57:38;;;;;;;2.27;1.20;;;23.60;53.10;;;;;;5417429;26;20285;-72
2024/04/18 04:00:05;;;;;;;1.23;0.97;;;23.60;53.10;;;;;;5449353;26;20219;-72
2024/04/18 04:02:32;;;;;;;2.50;1.10;;;23.60;53.10;;;;;;5436775;26;20274;-73
2024/04/18 04:04:58;;;;;;;1.27;0.90;;;23.60;53.10;;;;;;5413512;26;20843;-73
2024/04/18 04:07:24;;;;;;;1.30;0.87;;;23.60;53.10;;;;;;5413516;26;20624;-72
2024/04/18 04:09:50;;;;;;;1.10;0.80;;;23.60;53.10;;;;;;5413451;26;20487;-73
2024/04/18 04:12:15;;;;;;;2.00;1.20;;;23.60;53.10;;;;;;5421157;26;20231;-72
2024/04/18 04:14:41;;;;;;;1.20;1.00;;;23.60;53.10;;;;;;5452193;26;20219;-72
2024/04/18 04:17:08;;;;;;;1.60;0.90;;;23.60;53.10;;;;;;5452106;26;20231;-73
2024/04/18 04:19:34;;;;;;;1.00;0.80;;;23.60;53.60;;;;;;5452617;26;20263;-73
2024/04/18 04:22:00;;;;;;;1.73;1.03;;;23.60;53.10;;;;;;5448227;26;20505;-73
2024/04/18 04:24:25;;;;;;;1.27;0.97;;;23.60;53.10;;;;;;5416556;26;20220;-72
2024/04/18 04:26:51;;;;;;;1.17;1.00;;;23.60;53.10;;;;;;5416426;26;20786;-71
2024/04/18 04:29:18;;;;;;;1.00;0.80;;;23.60;53.10;;;;;;5416189;26;21036;-72
2024/04/18 04:31:43;;;;;;;1.23;0.90;;;23.60;53.00;;;;;;5416079;26;20450;-73
2024/04/18 04:34:10;;;;;;;1.40;1.00;;;23.60;53.00;;;;;;5451321;26;20461;-72
2024/04/18 04:36:36;;;;;;;1.70;1.17;;;23.60;53.00;;;;;;5424869;26;20271;-72
2024/04/18 04:39:01;;;;;;;1.17;1.00;;;23.60;53.10;;;;;;5416084;26;20883;-70
2024/04/18 04:41:27;;;;;;;1.57;0.90;;;23.60;52.90;;;;;;5416253;26;20217;-71
2024/04/18 04:43:53;;;;;;;4.50;1.00;;;23.60;52.70;;;;;;5446718;26;20235;-72
2024/04/18 04:46:18;;;;;;;1.30;0.97;;;23.60;52.70;;;;;;5452438;26;20235;-72
2024/04/18 04:48:44;;;;;;;1.07;0.80;;;23.60;52.80;;;;;;5452124;26;20541;-71
2024/04/18 04:51:10;;;;;;;1.40;1.00;;;23.60;52.90;;;;;;5452476;26;20589;-72
2024/04/18 04:53:36;;;;;;;1.80;0.87;;;23.60;52.90;;;;;;5448954;26;20468;-71
2024/04/18 04:56:02;;;;;;;1.63;1.10;;;23.60;52.90;;;;;;5452011;26;20449;-71
2024/04/18 04:58:28;;;;;;;1.43;0.90;;;23.60;52.90;;;;;;5451725;26;20231;-72
2024/04/18 05:00:54;;;;;;;1.90;1.00;;;23.60;52.90;;;;;;5436088;26;20282;-72
2024/04/18 05:03:22;;;;;;;1.30;1.00;;;23.60;52.90;;;;;;5407711;26;20230;-72
2024/04/18 05:05:48;;;;;;;2.80;1.33;;;23.60;52.90;;;;;;5458195;26;20584;-72
2024/04/18 05:08:14;;;;;;;1.50;1.00;;;23.60;52.90;;;;;;5451639;26;20472;-73
2024/04/18 05:10:44;;;;;;;1.87;1.20;;;23.60;53.00;;;;;;5441064;26;20237;-73
2024/04/18 05:13:12;;;;;;;3.77;1.40;;;23.60;53.00;;;;;;5415757;26;20276;-72
2024/04/18 05:15:38;;;;;;;2.80;1.23;;;23.60;53.00;;;;;;5445900;26;20519;-72
2024/04/18 05:18:04;;;;;;;1.83;1.10;;;23.60;53.00;;;;;;5450867;26;20472;-70
2024/04/18 05:20:30;;;;;;;2.37;1.10;;;23.60;53.10;;;;;;5451724;26;20515;-73
2024/04/18 05:22:55;;;;;;;1.57;1.00;;;23.60;53.00;;;;;;5451920;26;20867;-72
2024/04/18 05:25:22;;;;;;;1.10;0.90;;;23.60;53.00;;;;;;5450845;26;20355;-72
2024/04/18 05:28:03;;;;;;;1.47;1.10;;;23.60;53.00;;;;;;5451323;26;20374;-72
2024/04/18 05:33:12;;;;;;;1.13;0.80;;;23.60;53.10;;;;;;5451891;26;21065;-72
2024/04/18 05:35:38;;;;;;;1.97;0.90;;;23.60;53.10;;;;;;5451484;26;20453;-72
2024/04/18 05:38:04;;;;;;;1.40;1.10;;;23.60;53.10;;;;;;5451306;26;20323;-73
2024/04/18 05:40:29;;;;;;;1.70;1.50;;;23.60;53.10;;;;;;5451216;26;20561;-72
2024/04/18 05:42:55;;;;;;;1.20;0.90;;;23.60;53.00;;;;;;5451241;26;20273;-73
2024/04/18 05:45:20;;;;;;;2.30;0.97;;;23.60;53.10;;;;;;5451292;26;20337;-73
2024/04/18 05:47:46;;;;;;;1.20;0.90;;;23.60;53.00;;;;;;5479685;26;20292;-72
2024/04/18 05:50:12;;;;;;;1.97;1.10;;;23.60;53.00;;;;;;5450952;26;20273;-70
2024/04/18 05:52:37;;;;;;;2.80;1.27;;;23.60;53.00;;;;;;5450863;26;20773;-72
2024/04/18 05:55:03;;;;;;;1.53;1.10;;;23.60;53.00;;;;;;5451196;26;20216;-72
2024/04/18 05:57:28;;;;;;;2.13;1.13;;;23.60;53.00;;;;;;5450961;26;20219;-72
2024/04/18 05:59:54;;;;;;;2.30;1.50;;;23.60;53.00;;;;;;5450913;26;20227;-73
2024/04/18 06:02:21;;;;;;;4.40;1.00;;;23.60;53.00;;;;;;5450955;26;20368;-72
2024/04/18 06:04:46;;;;;;;2.60;1.00;;;23.60;53.00;;;;;;5450912;26;20266;-73
2024/04/18 06:07:12;;;;;;;1.50;1.00;;;23.60;53.00;;;;;;5451153;26;20460;-71
2024/04/18 06:09:37;;;;;;;2.50;1.60;;;23.70;53.10;;;;;;5450984;26;20268;-71
2024/04/18 06:12:03;;;;;;;1.53;1.00;;;23.70;53.10;;;;;;5450622;26;20626;-71
2024/04/18 06:14:29;;;;;;;2.97;1.10;;;23.70;53.10;;;;;;5479311;26;20223;-73
2024/04/18 06:16:54;;;;;;;1.40;1.00;;;23.60;53.00;;;;;;5450732;26;20231;-71
2024/04/18 06:19:20;;;;;;;2.00;1.13;;;23.70;53.10;;;;;;5450522;26;20231;-72
2024/04/18 06:21:46;;;;;;;1.03;0.93;;;23.60;53.00;;;;;;5450680;26;20265;-72
2024/04/18 06:24:11;;;;;;;2.07;1.17;;;23.60;53.00;;;;;;5418817;26;20227;-72
2024/04/18 06:26:37;;;;;;;1.37;0.93;;;23.60;53.00;;;;;;5418805;26;20239;-72
2024/04/18 06:29:02;;;;;;;2.37;0.90;;;23.70;53.00;;;;;;5450435;26;20760;-72
2024/04/18 06:31:28;;;;;;;1.83;1.00;;;23.70;53.10;;;;;;5450361;26;20263;-72
2024/04/18 06:33:54;;;;;;;1.80;1.00;;;23.70;53.10;;;;;;5450479;26;20266;-72
2024/04/18 06:36:19;;;;;;;1.53;1.00;;;23.70;53.10;;;;;;5450357;26;20227;-71
2024/04/18 06:38:45;;;;;;;1.40;0.90;;;23.60;53.00;;;;;;5450170;26;20317;-71
2024/04/18 06:41:10;;;;;;;1.90;1.13;;;23.70;53.10;;;;;;5450578;26;20254;-72
2024/04/18 06:43:36;;;;;;;2.00;1.00;;;23.70;53.10;;;;;;5450396;26;20219;-71
2024/04/18 06:46:01;;;;;;;2.40;0.90;;;23.70;53.10;;;;;;5418414;26;20223;-72
2024/04/18 06:48:27;;;;;;;1.50;1.07;;;23.60;53.00;;;;;;5450037;26;20254;-71
2024/04/18 06:50:53;;;;;;;1.97;1.10;;;23.70;53.10;;;;;;5450260;26;20283;-72
2024/04/18 06:53:18;;;;;;;1.60;1.10;;;23.70;53.10;;;;;;5450411;26;20585;-71
2024/04/18 06:55:44;;;;;;;1.33;1.20;;;23.70;53.10;;;;;;5450177;26;20269;-73
2024/04/18 06:58:09;;;;;;;2.33;1.00;;;23.70;53.10;;;;;;5450057;26;20316;-73
2024/04/18 07:00:37;;;;;;;2.60;1.17;;;23.70;53.10;;;;;;5450310;26;20219;-71
2024/04/18 07:03:06;;;;;;;1.30;1.00;;;23.70;53.10;;;;;;5450139;26;20220;-72
2024/04/18 07:05:31;;;;;;;1.20;0.97;;;23.70;53.10;;;;;;5450149;26;20512;-72
2024/04/18 07:07:57;;;;;;;1.30;1.00;;;23.70;53.10;;;;;;5449732;26;20468;-72
2024/04/18 07:10:23;;;;;;;1.10;0.80;;;23.70;53.10;;;;;;5449840;26;20231;-73
2024/04/18 07:12:49;;;;;;;1.80;0.87;;;23.70;53.10;;;;;;5450049;26;20226;-73
2024/04/18 07:15:14;;;;;;;3.80;0.80;;;23.70;53.10;;;;;;5449949;26;20212;-73
2024/04/18 07:17:42;;;;;;;1.50;1.07;;;23.70;53.10;;;;;;5417667;26;20285;-73
2024/04/18 07:20:09;;;;;;;1.30;1.10;;;23.70;53.10;;;;;;5449788;26;20266;-73
2024/04/18 07:22:37;;;;;;;2.80;1.00;;;23.70;53.10;;;;;;5449743;26;20563;-72
2024/04/18 07:25:06;;;;;;;1.40;1.10;;;23.70;53.10;;;;;;5417787;26;20449;-73
2024/04/18 07:27:31;;;;;;;1.13;0.80;;;23.70;53.10;;;;;;5449632;26;20516;-70
2024/04/18 07:29:57;;;;;;;2.57;1.00;;;23.60;53.10;;;;;;5449887;26;20449;-72
2024/04/18 07:32:23;;;;;;;1.33;1.00;;;23.60;53.10;;;;;;5447498;26;20270;-72
2024/04/18 07:34:48;;;;;;;1.93;0.70;;;23.60;53.10;;;;;;5417529;26;20667;-70
2024/04/18 07:37:14;;;;;;;1.87;0.90;;;23.70;53.10;;;;;;5449325;26;20706;-72
2024/04/18 07:39:40;;;;;;;1.50;1.10;;;23.70;53.20;;;;;;5449762;26;20269;-71
2024/04/18 07:42:06;;;;;;;1.23;1.00;;;23.70;53.20;;;;;;5449772;26;20231;-71
2024/04/18 07:44:31;;;;;;;1.30;0.90;;;23.70;53.10;;;;;;5449790;26;20461;-72
2024/04/18 07:46:57;;;;;;;1.20;0.97;;;23.70;53.10;;;;;;5449506;26;20323;-71
2024/04/18 07:49:23;;;;;;;2.17;0.93;;;23.70;53.20;;;;;;5448282;26;20235;-71
2024/04/18 07:51:49;;;;;;;1.23;0.90;;;23.70;53.20;;;;;;5449393;26;20219;-71
2024/04/18 07:54:15;;;;;;;1.10;0.73;;;23.70;53.20;;;;;;5449436;26;20522;-71
2024/04/18 07:56:41;;;;;;;2.90;1.00;;;23.70;53.20;;;;;;5417509;26;20258;-72
2024/04/18 07:59:07;;;;;;;2.73;0.90;;;23.70;53.20;;;;;;5449276;26;20464;-72
2024/04/18 08:01:35;;;;;;;1.50;1.10;;;23.70;53.10;;;;;;5449299;26;20227;-70
2024/04/18 08:04:01;;;;;;;1.37;0.93;;;23.70;53.20;;;;;;5449207;26;20819;-70
2024/04/18 08:06:26;;;;;;;1.33;0.93;;;23.60;53.60;;;;;;5449482;26;20437;-72
2024/04/18 08:08:52;;;;;;;1.10;0.80;;;23.70;53.10;;;;;;5449126;26;20473;-72
2024/04/18 08:11:17;;;;;;;1.93;1.17;;;23.60;53.10;;;;;;5448959;26;20215;-71
2024/04/18 08:13:46;;;;;;;1.40;1.07;;;23.70;53.20;;;;;;5448823;26;20223;-72
2024/04/18 08:16:12;;;;;;;1.30;1.00;;;23.60;53.10;;;;;;5449063;26;20223;-72
2024/04/18 08:18:37;;;;;;;1.17;0.90;;;23.60;53.10;;;;;;5477673;26;20512;-73
2024/04/18 08:21:03;;;;;;;1.07;0.80;;;23.60;53.10;;;;;;5449010;26;20215;-71
2024/04/18 08:23:28;;;;;;;1.27;0.90;;;23.60;53.10;;;;;;5448949;26;20602;-72
2024/04/18 08:25:54;;;;;;;1.20;0.90;;;23.60;53.10;;;;;;5448884;26;20764;-72
2024/04/18 08:28:20;;;;;;;1.43;0.90;;;23.60;53.10;;;;;;5448729;26;20269;-74
2024/04/18 08:30:46;;;;;;;1.10;0.90;;;23.60;53.10;;;;;;5448626;26;20224;-71
2024/04/18 08:33:11;;;;;;;2.53;0.90;;;23.70;53.20;;;;;;5448876;26;20320;-72
2024/04/18 08:35:38;;;;;;;1.40;1.00;;;23.60;53.10;;;;;;5448688;26;20239;-71
2024/04/18 08:38:04;;;;;;;1.20;0.90;;;23.60;53.10;;;;;;5416865;26;20966;-72
2024/04/18 08:40:30;;;;;;;2.00;0.80;;;23.70;53.10;;;;;;5448802;26;20568;-72
2024/04/18 08:42:56;;;;;;;1.70;1.10;;;23.70;53.10;;;;;;5449072;26;20267;-72
2024/04/18 08:45:25;;;;;;;1.10;0.90;;;23.60;53.00;;;;;;5448728;26;20501;-71
2024/04/18 08:47:52;;;;;;;1.30;1.10;;;23.70;53.10;;;;;;5448633;26;20343;-72
2024/04/18 08:50:20;;;;;;;1.53;0.90;;;23.70;53.10;;;;;;5448262;26;20521;-71
2024/04/18 08:52:46;;;;;;;1.37;1.20;;;23.70;53.10;;;;;;5448112;26;20962;-72
2024/04/18 08:55:11;;;;;;;2.00;1.10;;;23.70;53.10;;;;;;5448343;26;20561;-72
2024/04/18 08:58:01;;;;;;;1.33;1.10;;;23.60;53.00;;;;;;5448030;26;20232;-72
2024/04/18 09:00:26;;;;;;;1.50;0.80;;;23.70;53.10;;;;;;5449458;26;20230;-72
2024/04/18 09:02:52;;;;;;;1.67;0.80;;;23.70;53.10;;;;;;5451644;26;20457;-73
2024/04/18 09:05:18;;;;;;;1.33;0.90;;;23.70;53.10;;;;;;5451592;26;20232;-72
2024/04/18 09:07:44;;;;;;;0.90;0.70;;;23.70;53.10;;;;;;5451866;26;20525;-70
2024/04/18 09:10:09;;;;;;;1.20;0.90;;;23.70;53.10;;;;;;5451694;26;20223;-71
2024/04/18 09:12:35;;;;;;;1.20;0.80;;;23.70;53.10;;;;;;5451713;26;20266;-72
2024/04/18 09:15:02;;;;;;;1.30;0.80;;;23.70;53.10;;;;;;5451757;26;20698;-72
2024/04/18 09:17:28;;;;;;;1.93;0.87;;;23.70;53.10;;;;;;5451253;26;20270;-73
2024/04/18 09:19:54;;;;;;;1.10;0.80;;;23.70;53.10;;;;;;5419620;26;20460;-72
2024/04/18 09:22:21;;;;;;;1.57;0.73;;;23.70;53.10;;;;;;5451325;26;20223;-71
2024/04/18 09:24:47;;;;;;;1.07;0.87;;;23.70;53.10;;;;;;5451285;26;20448;-72
2024/04/18 09:27:14;;;;;;;1.90;0.97;;;23.70;53.10;;;;;;5451604;26;20445;-70
2024/04/18 09:29:49;;;;;;;1.40;0.90;;;23.70;53.20;;;;;;5451664;26;20453;-70
2024/04/18 09:32:16;;;;;;;1.30;0.80;;;23.80;53.30;;;;;;5451586;26;20861;-71
2024/04/18 09:34:47;;;;;;;1.67;0.90;;;23.80;53.30;;;;;;5451351;26;20481;-71
2024/04/18 09:37:15;;;;;;;1.97;0.90;;;23.80;53.30;;;;;;5451280;26;20986;-71
2024/04/18 09:39:43;;;;;;;2.63;1.10;;;23.80;53.30;;;;;;5451138;26;21014;-71
2024/04/18 09:42:12;;;;;;;1.40;1.07;;;23.90;53.30;;;;;;5451281;26;20449;-71
2024/04/18 09:44:43;;;;;;;1.60;0.90;;;23.80;53.30;;;;;;5451198;26;20534;-73
2024/04/18 09:47:10;;;;;;;1.13;0.70;;;23.90;53.40;;;;;;5451135;26;21046;-71
2024/04/18 09:49:37;;;;;;;1.40;0.80;;;23.90;53.40;;;;;;5451081;26;20460;-72
2024/04/18 09:52:04;;;;;;;1.17;0.90;;;23.90;53.90;;;;;;5450914;26;21088;-72
2024/04/18 09:54:29;;;;;;;1.90;0.93;;;23.90;53.40;;;;;;5451039;26;20445;-70
2024/04/18 09:56:58;;;;;;;1.20;0.80;;;23.90;53.40;;;;;;5450924;26;20537;-72
2024/04/18 09:59:25;;;;;;;1.47;0.90;;;24.00;53.50;;;;;;5451024;26;20277;-72
2024/04/18 10:01:53;;;;;;;1.13;1.03;;;24.00;53.50;;;;;;5450649;26;20510;-71
2024/04/18 10:04:20;;;;;;;1.40;0.90;;;24.00;53.50;;;;;;5450943;26;20525;-72
2024/04/18 10:06:48;;;;;;;1.00;0.70;;;24.00;53.50;;;;;;5450535;26;20449;-72
2024/04/18 10:09:16;;;;;;;2.07;0.90;;;24.00;53.50;;;;;;5478857;26;20477;-74
2024/04/18 10:11:42;;;;;;;1.00;0.80;;;24.00;53.50;;;;;;5450054;26;20461;-71
2024/04/18 10:14:08;;;;;;;1.30;1.00;;;24.10;53.50;;;;;;5450764;26;20563;-71
2024/04/18 10:16:48;;;;;;;1.20;0.80;;;24.00;53.50;;;;;;5450458;26;20223;-72
2024/04/18 10:19:19;;;;;;;1.20;0.80;;;24.10;53.50;;;;;;5450214;26;20394;-72
2024/04/18 10:21:55;;;;;;;1.20;1.00;;;24.10;53.60;;;;;;5450510;26;20978;-71
2024/04/18 10:24:20;;;;;;;1.10;0.83;;;24.10;53.50;;;;;;5450657;26;20448;-70
2024/04/18 10:26:46;;;;;;;2.77;0.97;;;24.10;53.50;;;;;;5450392;26;20500;-72
2024/04/18 10:29:22;;;;;;;1.80;0.83;;;24.10;53.60;;;;;;5450083;26;20255;-71
2024/04/18 10:31:48;;;;;;;2.20;1.10;;;24.10;53.50;;;;;;5450116;26;20330;-70
2024/04/18 10:34:14;;;;;;;1.00;0.80;;;24.10;53.60;;;;;;5450322;26;20456;-71
2024/04/18 10:36:39;;;;;;;2.10;0.90;;;24.20;53.60;;;;;;5450317;26;20219;-71
2024/04/18 10:39:05;;;;;;;1.10;0.90;;;24.10;53.50;;;;;;5450117;26;20235;-72
2024/04/18 10:41:31;;;;;;;1.10;0.80;;;24.20;53.60;;;;;;5450168;26;20266;-71
2024/04/18 10:43:58;;;;;;;4.30;1.70;;;24.20;53.60;;;;;;5450295;26;20300;-71
2024/04/18 10:46:24;;;;;;;1.30;0.80;;;24.20;53.60;;;;;;5450045;26;20219;-72
2024/04/18 10:48:56;;;;;;;1.37;1.00;;;24.20;53.60;;;;;;5449707;26;20481;-72
2024/04/18 10:51:25;;;;;;;1.03;0.87;;;24.20;53.60;;;;;;5450121;26;20845;-71
2024/04/18 10:53:50;;;;;;;1.43;0.97;;;24.20;53.60;;;;;;5449754;26;20501;-72
2024/04/18 10:56:16;;;;;;;1.07;0.80;;;24.20;53.60;;;;;;5449856;26;20814;-70
2024/04/18 10:58:41;;;;;;;2.10;1.00;;;24.20;53.60;;;;;;5449708;26;20293;-72
2024/04/18 11:01:07;;;;;;;3.10;1.03;;;24.20;53.60;;;;;;5449697;26;20266;-72
2024/04/18 11:03:33;;;;;;;2.90;1.13;;;24.30;53.60;;;;;;5449816;26;20331;-72
2024/04/18 11:06:01;;;;;;;1.50;1.13;;;24.20;53.60;;;;;;5449557;26;20620;-72
2024/04/18 11:08:30;;;;;;;1.27;0.83;;;24.20;53.50;;;;;;5449585;26;20232;-72
2024/04/18 11:10:55;;;;;;;2.40;0.80;;;24.30;53.60;;;;;;5449486;26;20445;-72
2024/04/18 11:13:21;;;;;;;1.33;0.80;;;24.30;53.60;;;;;;5449591;26;20501;-71
2024/04/18 11:15:47;;;;;;;1.93;1.07;;;24.30;53.60;;;;;;5449423;26;20262;-73
2024/04/18 11:18:14;;;;;;;1.70;0.97;;;24.30;53.60;;;;;;5449519;26;20468;-71
2024/04/18 11:20:41;;;;;;;1.20;0.80;;;24.30;53.60;;;;;;5449567;26;20226;-72
2024/04/18 11:23:08;;;;;;;1.20;0.80;;;24.30;53.60;;;;;;5448021;26;20537;-72
2024/04/18 11:25:37;;;;;;;1.20;0.70;;;24.30;53.60;;;;;;5449508;26;20440;-72
2024/04/18 11:28:06;;;;;;;1.43;0.87;;;24.30;53.60;;;;;;5449254;26;21065;-72
2024/04/18 11:30:32;;;;;;;1.50;1.00;;;24.30;53.60;;;;;;5449299;26;20971;-71
2024/04/18 11:33:01;;;;;;;1.20;0.87;;;24.30;53.60;;;;;;5449175;26;20508;-72
2024/04/18 11:35:26;;;;;;;1.07;0.90;;;24.30;53.70;;;;;;5449226;26;20433;-72
2024/04/18 11:37:55;;;;;;;1.60;0.90;;;24.30;53.70;;;;;;5449269;26;20514;-71
2024/04/18 11:40:20;;;;;;;2.20;1.00;;;24.40;53.70;;;;;;5449272;26;20263;-73
2024/04/18 11:42:46;;;;;;;1.20;0.97;;;24.30;54.20;;;;;;5449044;26;20453;-70
2024/04/18 11:45:12;;;;;;;2.37;0.87;;;24.40;53.80;;;;;;5449195;26;20253;-72
2024/04/18 11:47:38;;;;;;;1.63;0.80;;;24.40;53.80;;;;;;5448938;26;20744;-72
2024/04/18 11:50:04;;;;;;;1.70;0.90;;;24.40;53.80;;;;;;5449090;26;20274;-71
2024/04/18 11:52:30;;;;;;;3.10;0.90;;;24.40;53.80;;;;;;5448997;26;20617;-71
2024/04/18 11:54:55;;;;;;;1.20;0.80;;;24.40;53.80;;;;;;5448893;26;20520;-72
2024/04/18 11:57:21;;;;;;;1.50;1.03;;;24.40;53.70;;;;;;5448832;26;20296;-72
2024/04/18 11:59:47;;;;;;;1.30;1.00;;;24.40;53.70;;;;;;5448790;26;20219;-72
2024/04/18 12:02:13;;;;;;;1.20;0.83;;;24.40;53.70;;;;;;5449016;26;20514;-71
2024/04/18 12:04:39;;;;;;;1.20;0.80;;;24.50;53.80;;;;;;5448800;26;20219;-71
2024/04/18 12:07:05;;;;;;;1.30;0.77;;;24.50;53.80;;;;;;5448658;26;20227;-72
2024/04/18 12:09:34;;;;;;;1.00;0.90;;;24.40;53.70;;;;;;5448581;26;20525;-71
2024/04/18 12:12:00;;;;;;;1.10;0.93;;;24.50;53.80;;;;;;5448395;26;20287;-71
2024/04/18 12:14:26;;;;;;;1.40;1.00;;;24.50;53.80;;;;;;5448678;26;20574;-71
2024/04/18 12:16:52;;;;;;;2.13;1.00;;;24.50;53.70;;;;;;5448582;26;20441;-71
2024/04/18 12:19:17;;;;;;;1.23;0.80;;;24.50;53.70;;;;;;5448466;26;20303;-74
2024/04/18 12:21:43;;;;;;;0.93;0.77;;;24.50;53.70;;;;;;5448572;26;20335;-71
2024/04/18 12:24:08;;;;;;;1.90;0.90;;;24.50;53.70;;;;;;5448794;26;20219;-72
2024/04/18 12:26:35;;;;;;;1.40;1.00;;;24.50;53.70;;;;;;5448475;26;20701;-72
2024/04/18 12:29:02;;;;;;;1.53;0.80;;;24.50;54.30;;;;;;5448293;26;20246;-72
2024/04/18 12:31:27;;;;;;;1.47;0.70;;;24.50;53.70;;;;;;5448265;26;20522;-71
2024/04/18 12:33:53;;;;;;;1.53;0.90;;;24.50;54.30;;;;;;5448924;26;20444;-72
2024/04/18 12:36:21;;;;;;;1.33;1.00;;;24.50;53.70;;;;;;5452003;26;20615;-72
2024/04/18 12:38:46;;;;;;;1.20;0.90;;;24.50;53.70;;;;;;5452000;26;20695;-72
2024/04/18 12:41:12;;;;;;;2.33;1.00;;;24.50;53.70;;;;;;5452030;26;20437;-71
2024/04/18 12:43:37;;;;;;;1.20;0.90;;;24.60;53.80;;;;;;5451868;26;20261;-73
2024/04/18 12:46:03;;;;;;;0.90;0.70;;;24.50;53.70;;;;;;5451897;26;20601;-71